createdAt,value
2018-05-03T00:00:46.355Z,99.90
2018-05-03T00:03:14.696Z,99.90
2018-05-03T00:05:43.007Z,99.90
2018-05-03T00:08:10.576Z,99.90
2018-05-03T00:10:38.127Z,99.90
2018-05-03T00:13:05.692Z,99.90
2018-05-03T00:15:33.245Z,99.90
2018-05-03T00:18:00.836Z,99.90
2018-05-03T00:20:28.386Z,99.90
2018-05-03T00:22:55.952Z,99.90
2018-05-03T00:25:23.537Z,99.90
2018-05-03T00:27:51.180Z,99.90
2018-05-03T00:30:18.669Z,99.90
2018-05-03T00:32:46.232Z,99.90
2018-05-03T00:35:13.784Z,99.90
2018-05-03T00:37:42.123Z,99.90
2018-05-03T00:40:09.691Z,99.90
2018-05-03T00:42:37.256Z,99.90
2018-05-03T00:45:04.804Z,99.90
2018-05-03T00:47:32.364Z,99.90
2018-05-03T00:49:59.916Z,99.90
2018-05-03T00:52:27.488Z,99.90
2018-05-03T00:54:55.087Z,99.90
2018-05-03T00:57:23.400Z,99.90
2018-05-03T00:59:50.964Z,99.90
2018-05-03T01:02:18.512Z,99.90
2018-05-03T01:04:46.844Z,99.90
2018-05-03T01:07:14.387Z,99.90
2018-05-03T01:09:42.720Z,99.90
2018-05-03T01:12:10.263Z,99.90
2018-05-03T01:14:37.820Z,99.90
2018-05-03T01:17:05.366Z,99.90
2018-05-03T01:19:32.965Z,99.90
2018-05-03T01:22:00.511Z,99.90
2018-05-03T01:24:28.852Z,99.90
2018-05-03T01:26:56.396Z,99.90
2018-05-03T01:29:23.960Z,99.90
2018-05-03T01:31:52.275Z,99.90
2018-05-03T01:34:19.847Z,99.90
2018-05-03T01:36:47.401Z,99.90
2018-05-03T01:39:14.958Z,99.90
2018-05-03T01:41:43.273Z,99.90
2018-05-03T01:44:10.835Z,99.90
2018-05-03T01:46:38.377Z,99.90
2018-05-03T01:49:05.948Z,99.90
2018-05-03T01:51:33.496Z,99.90
2018-05-03T01:54:01.067Z,99.90
2018-05-03T01:56:28.611Z,99.90
2018-05-03T01:58:56.163Z,99.90
2018-05-03T02:01:23.744Z,99.90
2018-05-03T02:03:51.288Z,99.90
2018-05-03T02:06:19.628Z,99.90
2018-05-03T02:08:47.176Z,99.90
2018-05-03T02:11:14.743Z,99.90
2018-05-03T02:13:42.288Z,99.90
2018-05-03T02:16:10.625Z,99.90
2018-05-03T02:18:38.172Z,99.90
2018-05-03T02:21:05.740Z,99.90
2018-05-03T02:23:33.284Z,99.90
2018-05-03T02:26:00.851Z,99.90
2018-05-03T02:28:28.406Z,99.90
2018-05-03T02:30:55.975Z,99.90
2018-05-03T02:33:23.525Z,99.90
2018-05-03T02:35:51.087Z,99.90
2018-05-03T02:38:18.632Z,99.90
2018-05-03T02:40:46.964Z,99.90
2018-05-03T02:43:14.532Z,99.90
2018-05-03T02:45:42.100Z,99.90
2018-05-03T02:48:09.645Z,99.90
2018-05-03T02:50:37.211Z,99.90
2018-05-03T02:53:05.532Z,99.90
2018-05-03T02:55:33.108Z,99.90
2018-05-03T02:58:18.581Z,99.90
2018-05-03T03:01:03.961Z,99.90
2018-05-03T03:03:49.227Z,99.90
2018-05-03T03:06:35.060Z,99.90
2018-05-03T03:12:41.260Z,99.90
2018-05-03T03:15:27.047Z,99.90
2018-05-03T03:18:12.163Z,99.90
2018-05-03T03:24:15.339Z,99.90
2018-05-03T03:30:07.060Z,99.90
2018-05-03T03:32:47.263Z,99.90
2018-05-03T03:38:35.720Z,99.90
2018-05-03T03:41:15.843Z,99.90
2018-05-03T03:43:55.249Z,99.90
2018-05-03T03:46:22.804Z,99.90
2018-05-03T03:48:51.143Z,99.90
2018-05-03T03:51:18.683Z,99.90
2018-05-03T03:53:46.252Z,99.90
2018-05-03T03:56:13.799Z,99.90
2018-05-03T03:58:41.365Z,99.90
2018-05-03T04:01:08.907Z,99.90
2018-05-03T04:03:36.479Z,99.90
2018-05-03T04:06:04.032Z,99.90
2018-05-03T04:08:31.588Z,99.90
2018-05-03T04:10:59.152Z,99.90
2018-05-03T04:13:26.699Z,99.90
2018-05-03T04:15:54.276Z,99.90
2018-05-03T04:18:34.447Z,99.90
2018-05-03T04:21:13.787Z,99.90
2018-05-03T04:24:10.315Z,99.90
2018-05-03T04:26:38.056Z,99.90
2018-05-03T04:29:05.599Z,99.90
2018-05-03T04:31:33.936Z,99.90
2018-05-03T04:34:01.485Z,99.90
2018-05-03T04:36:29.060Z,99.90
2018-05-03T04:38:56.605Z,99.90
2018-05-03T04:41:24.951Z,99.90
2018-05-03T04:43:52.488Z,99.90
2018-05-03T04:46:20.043Z,99.90
2018-05-03T04:48:48.378Z,99.90
2018-05-03T04:51:16.027Z,99.90
2018-05-03T04:53:43.597Z,99.90
2018-05-03T04:56:11.151Z,99.90
2018-05-03T04:58:38.739Z,99.90
2018-05-03T05:01:06.279Z,99.90
2018-05-03T05:03:34.611Z,99.90
2018-05-03T05:06:02.158Z,99.90
2018-05-03T05:08:30.498Z,99.90
2018-05-03T05:10:58.050Z,99.90
2018-05-03T05:13:25.615Z,99.90
2018-05-03T05:15:53.197Z,99.90
2018-05-03T05:18:20.767Z,99.90
2018-05-03T05:20:48.311Z,99.90
2018-05-03T05:23:15.880Z,99.90
2018-05-03T05:25:43.437Z,99.90
2018-05-03T05:28:11.791Z,99.90
2018-05-03T05:30:39.410Z,99.90
2018-05-03T05:33:06.907Z,99.90
2018-05-03T05:35:34.470Z,99.90
2018-05-03T05:38:02.016Z,99.90
2018-05-03T05:40:30.352Z,99.90
2018-05-03T05:42:57.891Z,99.90
2018-05-03T05:45:25.459Z,99.90
2018-05-03T05:47:53.022Z,99.90
2018-05-03T05:50:21.368Z,99.90
2018-05-03T05:52:48.918Z,99.90
2018-05-03T05:55:16.483Z,99.90
2018-05-03T05:57:44.029Z,99.90
2018-05-03T06:00:12.363Z,99.90
2018-05-03T06:02:39.909Z,99.90
2018-05-03T06:05:07.499Z,99.90
2018-05-03T06:07:35.055Z,99.90
2018-05-03T06:10:02.648Z,99.90
2018-05-03T06:12:30.205Z,99.90
2018-05-03T06:14:57.761Z,99.90
2018-05-03T06:17:25.355Z,99.90
2018-05-03T06:19:52.912Z,99.90
2018-05-03T06:22:20.488Z,99.90
2018-05-03T06:24:48.045Z,99.90
2018-05-03T06:27:15.631Z,99.90
2018-05-03T06:29:43.192Z,99.90
2018-05-03T06:32:10.772Z,99.90
2018-05-03T06:34:38.332Z,99.90
2018-05-03T06:37:05.904Z,99.90
2018-05-03T06:39:33.456Z,99.90
2018-05-03T06:42:01.788Z,99.90
2018-05-03T06:44:29.340Z,99.90
2018-05-03T06:46:56.917Z,99.90
2018-05-03T06:49:24.464Z,99.90
2018-05-03T06:51:52.806Z,99.90
2018-05-03T06:54:20.360Z,99.90
2018-05-03T06:56:47.939Z,99.90
2018-05-03T06:59:15.490Z,99.90
2018-05-03T07:01:43.064Z,99.90
2018-05-03T07:04:10.658Z,99.90
2018-05-03T07:06:38.226Z,99.90
2018-05-03T07:09:05.799Z,99.90
2018-05-03T07:11:33.353Z,99.90
2018-05-03T07:14:00.919Z,99.90
2018-05-03T07:16:28.465Z,99.90
2018-05-03T07:18:56.048Z,99.90
2018-05-03T07:21:24.371Z,99.90
2018-05-03T07:23:51.973Z,99.90
2018-05-03T07:26:19.516Z,99.90
2018-05-03T07:28:47.091Z,99.90
2018-05-03T07:31:14.641Z,99.90
2018-05-03T07:33:42.213Z,99.70
2018-05-03T07:36:09.772Z,99.90
2018-05-03T07:38:38.110Z,97.90
2018-05-03T07:41:05.656Z,97.90
2018-05-03T07:43:33.203Z,96.70
2018-05-03T07:46:01.546Z,99.00
2018-05-03T07:48:29.123Z,99.00
2018-05-03T07:50:56.695Z,98.30
2018-05-03T07:53:24.250Z,97.00
2018-05-03T07:55:51.836Z,99.90
2018-05-03T07:58:19.383Z,98.90
2018-05-03T08:00:46.960Z,98.50
2018-05-03T08:03:14.517Z,97.70
2018-05-03T08:05:42.096Z,99.40
2018-05-03T08:08:09.642Z,98.50
2018-05-03T08:10:37.211Z,99.10
2018-05-03T08:13:05.525Z,99.10
2018-05-03T08:15:33.104Z,99.00
2018-05-03T08:18:00.659Z,97.00
2018-05-03T08:20:28.230Z,98.10
2018-05-03T08:22:55.775Z,99.00
2018-05-03T08:25:24.114Z,97.70
2018-05-03T08:27:52.439Z,99.70
2018-05-03T08:30:20.012Z,99.70
2018-05-03T08:32:48.364Z,97.50
2018-05-03T08:35:15.941Z,97.50
2018-05-03T08:37:43.489Z,97.50
2018-05-03T08:40:11.058Z,95.80
2018-05-03T08:42:38.612Z,95.50
2018-05-03T08:45:06.956Z,93.30
2018-05-03T08:47:34.505Z,93.30
2018-05-03T08:50:02.065Z,94.50
2018-05-03T08:52:29.648Z,90.30
2018-05-03T08:54:57.201Z,91.30
2018-05-03T08:57:24.767Z,92.10
2018-05-03T08:59:52.325Z,91.80
2018-05-03T09:02:20.664Z,91.60
2018-05-03T09:04:48.231Z,91.60
2018-05-03T09:07:15.808Z,90.10
2018-05-03T09:09:43.355Z,90.90
2018-05-03T09:12:10.925Z,88.50
2018-05-03T09:14:38.518Z,90.20
2018-05-03T09:17:06.098Z,86.80
2018-05-03T09:19:33.648Z,81.90
2018-05-03T09:22:01.208Z,79.30
2018-05-03T09:24:28.786Z,74.70
2018-05-03T09:26:56.343Z,76.80
2018-05-03T09:29:23.915Z,77.20
2018-05-03T09:31:51.471Z,66.70
2018-05-03T09:34:19.820Z,71.80
2018-05-03T09:36:47.372Z,71.90
2018-05-03T09:39:15.037Z,75.10
2018-05-03T09:41:42.525Z,73.80
2018-05-03T09:44:10.099Z,72.80
2018-05-03T09:46:37.643Z,70.20
2018-05-03T09:49:05.217Z,68.70
2018-05-03T09:51:32.772Z,68.40
2018-05-03T09:54:00.348Z,74.00
2018-05-03T09:56:27.901Z,73.50
2018-05-03T09:58:56.244Z,66.40
2018-05-03T10:01:23.796Z,66.50
2018-05-03T10:03:51.355Z,69.90
2018-05-03T10:06:18.925Z,66.80
2018-05-03T10:08:46.488Z,68.30
2018-05-03T10:11:14.823Z,60.40
2018-05-03T10:13:42.367Z,60.40
2018-05-03T10:16:09.944Z,61.10
2018-05-03T10:18:37.487Z,57.10
2018-05-03T10:21:05.824Z,55.50
2018-05-03T10:23:33.369Z,55.30
2018-05-03T10:26:00.942Z,58.30
2018-05-03T10:28:28.491Z,64.50
2018-05-03T10:30:56.825Z,63.30
2018-05-03T10:33:24.380Z,63.20
2018-05-03T10:35:51.963Z,61.80
2018-05-03T10:38:19.529Z,64.30
2018-05-03T10:40:47.126Z,60.70
2018-05-03T10:43:14.688Z,59.80
2018-05-03T10:45:42.243Z,60.10
2018-05-03T10:48:09.809Z,63.70
2018-05-03T10:50:37.364Z,65.80
2018-05-03T10:53:04.935Z,59.00
2018-05-03T10:55:32.492Z,68.20
2018-05-03T10:58:00.827Z,57.60
2018-05-03T11:00:28.384Z,57.80
2018-05-03T11:02:55.957Z,62.30
2018-05-03T11:05:23.596Z,56.40
2018-05-03T11:07:51.115Z,57.20
2018-05-03T11:10:18.664Z,53.90
2018-05-03T11:12:46.237Z,49.10
2018-05-03T11:15:13.789Z,53.20
2018-05-03T11:17:42.137Z,54.60
2018-05-03T11:20:09.696Z,54.70
2018-05-03T11:22:37.289Z,58.20
2018-05-03T11:25:04.844Z,55.40
2018-05-03T11:27:32.412Z,55.40
2018-05-03T11:29:59.985Z,55.80
2018-05-03T11:32:27.545Z,56.70
2018-05-03T11:34:55.111Z,51.90
2018-05-03T11:37:22.667Z,53.70
2018-05-03T11:39:50.241Z,55.10
2018-05-03T11:42:17.787Z,53.50
2018-05-03T11:44:46.124Z,58.00
2018-05-03T11:47:13.773Z,57.90
2018-05-03T11:49:41.345Z,59.10
2018-05-03T11:52:08.900Z,55.20
2018-05-03T11:54:36.499Z,50.80
2018-05-03T11:57:04.060Z,57.70
2018-05-03T11:59:31.705Z,51.60
2018-05-03T12:01:59.199Z,46.30
2018-05-03T12:04:26.750Z,53.80
2018-05-03T12:06:55.093Z,48.50
2018-05-03T12:09:22.647Z,48.30
2018-05-03T12:11:50.311Z,50.70
2018-05-03T12:14:17.785Z,49.50
2018-05-03T12:16:45.356Z,51.70
2018-05-03T12:19:12.907Z,49.00
2018-05-03T12:21:41.248Z,54.90
2018-05-03T12:24:08.801Z,54.90
2018-05-03T12:26:36.383Z,53.80
2018-05-03T12:29:03.935Z,53.80
2018-05-03T12:31:31.535Z,54.70
2018-05-03T12:33:59.084Z,52.70
2018-05-03T12:36:26.644Z,55.40
2018-05-03T12:38:54.220Z,51.40
2018-05-03T12:41:21.779Z,56.00
2018-05-03T12:43:49.351Z,55.80
2018-05-03T12:46:16.902Z,54.70
2018-05-03T12:48:45.239Z,54.80
2018-05-03T12:51:12.784Z,54.80
2018-05-03T12:53:40.356Z,59.10
2018-05-03T12:56:07.907Z,58.60
2018-05-03T12:58:36.255Z,63.20
2018-05-03T13:01:03.799Z,63.20
2018-05-03T13:03:31.368Z,63.00
2018-05-03T13:05:58.916Z,65.80
2018-05-03T13:08:27.251Z,72.20
2018-05-03T13:10:54.795Z,72.20
2018-05-03T13:13:23.131Z,85.50
2018-05-03T13:15:50.683Z,86.00
2018-05-03T13:18:18.236Z,81.20
2018-05-03T13:20:45.864Z,81.40
2018-05-03T13:23:13.416Z,82.50
2018-05-03T13:25:40.994Z,79.30
2018-05-03T13:28:09.317Z,83.20
2018-05-03T13:30:37.668Z,90.20
2018-05-03T13:33:05.227Z,90.20
2018-05-03T13:35:32.808Z,91.20
2018-05-03T13:38:00.364Z,94.40
2018-05-03T13:40:27.946Z,92.90
2018-05-03T13:42:55.499Z,93.30
2018-05-03T13:45:23.072Z,92.50
2018-05-03T13:47:50.628Z,92.50
2018-05-03T13:50:18.204Z,92.10
2018-05-03T13:52:45.758Z,90.80
2018-05-03T13:55:14.120Z,91.50
2018-05-03T13:57:41.676Z,91.30
2018-05-03T14:00:09.226Z,81.50
2018-05-03T14:02:36.800Z,82.60
2018-05-03T14:05:04.347Z,75.60
2018-05-03T14:07:32.000Z,71.00
2018-05-03T14:09:59.496Z,73.90
2018-05-03T14:12:27.067Z,66.20
2018-05-03T14:14:54.637Z,67.00
2018-05-03T14:17:22.213Z,63.90
2018-05-03T14:19:49.767Z,64.00
2018-05-03T14:22:17.339Z,58.60
2018-05-03T14:24:45.657Z,58.80
2018-05-03T14:27:13.252Z,58.80
2018-05-03T14:29:41.568Z,55.10
2018-05-03T14:32:09.944Z,56.30
2018-05-03T14:34:37.491Z,56.60
2018-05-03T14:37:05.823Z,58.90
2018-05-03T14:39:34.141Z,57.80
2018-05-03T14:42:01.707Z,57.60
2018-05-03T14:44:29.260Z,54.20
2018-05-03T14:46:57.599Z,58.20
2018-05-03T14:49:25.153Z,58.10
2018-05-03T14:51:52.716Z,51.90
2018-05-03T14:54:20.271Z,51.70
2018-05-03T14:56:48.612Z,51.50
2018-05-03T14:59:16.156Z,51.60
2018-05-03T15:01:43.719Z,53.80
2018-05-03T15:04:11.272Z,51.30
2018-05-03T15:06:39.745Z,50.50
2018-05-03T15:09:07.175Z,50.30
2018-05-03T15:11:34.724Z,48.80
2018-05-03T15:14:02.296Z,49.00
2018-05-03T15:16:29.854Z,47.80
2018-05-03T15:18:57.442Z,47.50
2018-05-03T15:21:24.995Z,49.40
2018-05-03T15:23:53.575Z,50.20
2018-05-03T15:26:21.123Z,50.10
2018-05-03T15:28:48.704Z,46.00
2018-05-03T15:31:16.267Z,46.50
2018-05-03T15:33:45.419Z,46.00
2018-05-03T15:36:12.923Z,45.90
2018-05-03T15:38:40.496Z,44.10
2018-05-03T15:41:08.048Z,43.30
2018-05-03T15:43:35.622Z,43.90
2018-05-03T15:46:03.167Z,43.50
2018-05-03T15:48:31.506Z,44.70
2018-05-03T15:50:59.071Z,44.80
2018-05-03T15:53:26.647Z,44.50
2018-05-03T15:55:54.208Z,43.20
2018-05-03T15:58:21.775Z,42.80
2018-05-03T16:00:49.329Z,42.40
2018-05-03T16:03:16.899Z,43.00
2018-05-03T16:05:44.447Z,42.80
2018-05-03T16:08:12.020Z,42.50
2018-05-03T16:10:40.347Z,40.50
2018-05-03T16:13:07.932Z,39.90
2018-05-03T16:15:35.485Z,41.70
2018-05-03T16:18:03.058Z,40.00
2018-05-03T16:20:30.694Z,39.80
2018-05-03T16:22:58.184Z,39.30
2018-05-03T16:25:26.531Z,40.90
2018-05-03T16:27:54.086Z,40.80
2018-05-03T16:30:21.652Z,39.80
2018-05-03T16:32:49.212Z,39.80
2018-05-03T16:35:16.795Z,40.20
2018-05-03T16:37:44.350Z,40.70
2018-05-03T16:40:11.921Z,40.40
2018-05-03T16:42:39.468Z,42.80
2018-05-03T16:45:07.811Z,41.90
2018-05-03T16:47:35.358Z,41.90
2018-05-03T16:50:02.925Z,45.00
2018-05-03T16:52:30.472Z,45.00
2018-05-03T16:54:58.809Z,43.70
2018-05-03T16:57:27.127Z,45.00
2018-05-03T16:59:54.691Z,44.90
2018-05-03T17:02:22.252Z,43.80
2018-05-03T17:04:49.850Z,43.30
2018-05-03T17:07:17.400Z,41.40
2018-05-03T17:09:44.985Z,43.20
2018-05-03T17:12:12.578Z,42.70
2018-05-03T17:14:40.964Z,43.60
2018-05-03T17:17:09.319Z,44.20
2018-05-03T17:19:36.943Z,44.70
2018-05-03T17:22:04.540Z,44.30
2018-05-03T17:24:32.162Z,44.50
2018-05-03T17:26:59.745Z,45.30
2018-05-03T17:29:28.143Z,45.10
2018-05-03T17:31:55.736Z,45.10
2018-05-03T17:34:23.334Z,44.50
2018-05-03T17:36:50.944Z,45.50
2018-05-03T17:39:18.537Z,45.40
2018-05-03T17:41:46.897Z,45.20
2018-05-03T17:44:14.516Z,45.10
2018-05-03T17:46:42.119Z,43.00
2018-05-03T17:49:09.716Z,43.40
2018-05-03T17:51:37.319Z,44.50
2018-05-03T17:54:05.680Z,44.70
2018-05-03T17:56:33.269Z,44.70
2018-05-03T17:59:00.818Z,44.80
2018-05-03T18:01:28.389Z,45.30
2018-05-03T18:03:55.939Z,44.70
2018-05-03T18:06:23.507Z,44.30
2018-05-03T18:08:51.058Z,45.20
2018-05-03T18:11:18.692Z,46.40
2018-05-03T18:13:46.284Z,47.60
2018-05-03T18:16:14.659Z,49.40
2018-05-03T18:18:42.188Z,49.40
2018-05-03T18:21:09.756Z,50.20
2018-05-03T18:23:37.307Z,51.20
2018-05-03T18:26:04.880Z,51.40
2018-05-03T18:28:32.447Z,52.20
2018-05-03T18:31:00.025Z,53.40
2018-05-03T18:33:27.598Z,54.20
2018-05-03T18:35:55.340Z,55.00
2018-05-03T18:38:23.683Z,58.40
2018-05-03T18:40:51.297Z,58.40
2018-05-03T18:43:19.170Z,59.30
2018-05-03T18:45:46.994Z,61.80
2018-05-03T18:48:14.770Z,66.20
2018-05-03T18:50:42.383Z,67.90
2018-05-03T18:53:10.006Z,68.70
2018-05-03T18:55:38.366Z,73.10
2018-05-03T18:58:05.956Z,73.10
2018-05-03T19:00:33.523Z,76.00
2018-05-03T19:03:01.119Z,77.80
2018-05-03T19:05:29.473Z,78.60
2018-05-03T19:07:58.073Z,78.60
2018-05-03T19:10:26.041Z,79.30
2018-05-03T19:12:53.713Z,79.20
2018-05-03T19:15:21.279Z,80.00
2018-05-03T19:17:48.872Z,79.60
2018-05-03T19:20:16.470Z,81.50
2018-05-03T19:22:44.842Z,82.80
2018-05-03T19:25:13.180Z,84.00
2018-05-03T19:27:40.887Z,84.00
2018-05-03T19:30:08.458Z,84.80
2018-05-03T19:32:36.046Z,85.80
2018-05-03T19:35:03.846Z,86.10
2018-05-03T19:37:31.590Z,87.00
2018-05-03T19:39:59.168Z,87.40
2018-05-03T19:42:26.793Z,88.10
2018-05-03T19:44:54.660Z,88.60
2018-05-03T19:47:22.226Z,89.00
2018-05-03T19:49:49.938Z,89.40
2018-05-03T19:52:17.513Z,90.10
2018-05-03T19:54:45.995Z,90.00
2018-05-03T19:57:13.602Z,90.30
2018-05-03T19:59:41.264Z,90.20
2018-05-03T20:02:08.902Z,90.50
2018-05-03T20:04:37.280Z,91.00
2018-05-03T20:07:04.859Z,91.00
2018-05-03T20:09:32.446Z,91.00
2018-05-03T20:12:00.790Z,91.00
2018-05-03T20:14:28.350Z,91.00
2018-05-03T20:16:56.847Z,91.30
2018-05-03T20:19:24.457Z,91.20
2018-05-03T20:21:52.028Z,91.10
2018-05-03T20:24:19.631Z,90.90
2018-05-03T20:26:47.965Z,91.10
2018-05-03T20:29:15.545Z,91.10
2018-05-03T20:31:43.104Z,91.30
2018-05-03T20:34:10.689Z,91.80
2018-05-03T20:36:38.253Z,92.30
2018-05-03T20:39:05.821Z,92.40
2018-05-03T20:41:33.368Z,92.60
2018-05-03T20:44:00.937Z,93.10
2018-05-03T20:46:28.479Z,93.50
2018-05-03T20:48:56.043Z,93.50
2018-05-03T20:51:23.594Z,93.90
2018-05-03T20:53:51.140Z,93.70
2018-05-03T20:56:18.716Z,94.00
2018-05-03T20:58:46.277Z,94.20
2018-05-03T21:01:13.849Z,94.20
2018-05-03T21:03:41.395Z,94.40
2018-05-03T21:06:09.754Z,97.00
2018-05-03T21:08:37.311Z,97.00
2018-05-03T21:11:04.884Z,97.60
2018-05-03T21:13:32.436Z,98.50
2018-05-03T21:16:00.008Z,98.90
2018-05-03T21:18:27.548Z,98.80
2018-05-03T21:20:55.880Z,99.10
2018-05-03T21:23:23.436Z,99.10
2018-05-03T21:25:51.000Z,99.30
2018-05-03T21:28:18.541Z,99.40
2018-05-03T21:30:46.877Z,99.90
2018-05-03T21:33:14.425Z,99.90
2018-05-03T21:35:41.991Z,99.90
2018-05-03T21:38:09.536Z,99.90
2018-05-03T21:40:37.107Z,99.90
2018-05-03T21:43:04.656Z,99.90
2018-05-03T21:45:32.225Z,99.90
2018-05-03T21:47:59.777Z,99.90
2018-05-03T21:50:27.339Z,99.90
2018-05-03T21:52:54.893Z,99.90
2018-05-03T21:55:22.459Z,99.90
2018-05-03T21:57:50.769Z,99.90
2018-05-03T22:00:18.339Z,99.90
2018-05-03T22:02:45.893Z,99.90
2018-05-03T22:05:14.221Z,99.90
2018-05-03T22:07:41.800Z,99.90
2018-05-03T22:10:09.352Z,99.90
2018-05-03T22:12:36.915Z,99.90
2018-05-03T22:15:04.466Z,99.90
2018-05-03T22:17:32.797Z,99.90
2018-05-03T22:20:00.348Z,99.90
2018-05-03T22:22:27.917Z,99.90
2018-05-03T22:24:55.459Z,99.90
2018-05-03T22:27:23.794Z,99.90
2018-05-03T22:29:51.345Z,99.90
2018-05-03T22:32:18.910Z,99.90
2018-05-03T22:34:46.464Z,99.90
2018-05-03T22:37:14.808Z,99.90
2018-05-03T22:39:42.356Z,99.90
2018-05-03T22:42:09.920Z,99.90
2018-05-03T22:44:37.465Z,99.90
2018-05-03T22:47:05.808Z,99.90
2018-05-03T22:49:33.352Z,99.90
2018-05-03T22:52:00.916Z,99.90
2018-05-03T22:54:28.460Z,99.90
2018-05-03T22:56:56.099Z,99.90
2018-05-03T22:59:23.645Z,99.90
2018-05-03T23:01:51.207Z,99.90
2018-05-03T23:04:18.746Z,99.90
2018-05-03T23:06:46.318Z,99.90
2018-05-03T23:09:13.871Z,99.90
2018-05-03T23:11:41.435Z,99.90
2018-05-03T23:14:08.981Z,99.90
2018-05-03T23:16:36.564Z,99.90
2018-05-03T23:19:04.121Z,99.90
2018-05-03T23:21:31.667Z,99.90
2018-05-03T23:23:59.992Z,99.90
2018-05-03T23:26:27.544Z,99.90
2018-05-03T23:28:55.112Z,99.90
2018-05-03T23:31:22.661Z,99.90
2018-05-03T23:33:50.228Z,99.90
2018-05-03T23:36:17.779Z,99.90
2018-05-03T23:38:45.348Z,99.90
2018-05-03T23:41:12.901Z,99.90
2018-05-03T23:43:40.472Z,99.90
2018-05-03T23:46:08.020Z,99.90
2018-05-03T23:48:35.589Z,99.90
2018-05-03T23:51:03.140Z,99.90
2018-05-03T23:53:31.479Z,99.90
2018-05-03T23:55:59.023Z,99.90
2018-05-03T23:58:26.587Z,99.90
